createdAt,value
2018-09-24T00:03:55.202Z,100345.36
2018-09-24T00:08:58.495Z,100368.25
2018-09-24T00:14:01.770Z,100374.61
2018-09-24T00:19:05.043Z,100382.97
2018-09-24T00:24:08.334Z,100401.08
2018-09-24T00:29:11.615Z,100396.01
2018-09-24T00:34:14.893Z,100424.58
2018-09-24T00:39:18.197Z,100427.18
2018-09-24T00:44:21.474Z,100445.29
2018-09-24T00:49:24.746Z,100447.89
2018-09-24T00:54:28.026Z,100457.47
2018-09-24T00:59:31.301Z,100476.36
2018-09-24T01:04:34.598Z,100486.72
2018-09-24T01:09:37.878Z,100491.50
2018-09-24T01:14:41.161Z,100511.79
2018-09-24T01:19:44.438Z,100522.14
2018-09-24T01:24:47.722Z,100519.03
2018-09-24T01:29:51.006Z,100533.72
2018-09-24T01:34:54.283Z,100543.47
2018-09-24T01:39:57.730Z,100547.49
2018-09-24T01:45:01.018Z,100551.06
2018-09-24T01:50:04.694Z,100562.63
2018-09-24T01:55:07.976Z,100571.95
2018-09-24T02:00:11.279Z,100581.53
2018-09-24T02:05:15.828Z,100582.73
2018-09-24T02:10:24.042Z,100594.67
2018-09-24T02:15:29.710Z,100598.23
2018-09-24T02:20:33.002Z,100602.84
2018-09-24T02:25:39.455Z,100621.13
2018-09-24T02:30:42.735Z,100634.45
2018-09-24T02:35:49.970Z,100640.87
2018-09-24T02:40:53.263Z,100647.05
2018-09-24T02:45:56.600Z,100652.44
2018-09-24T02:50:59.919Z,100665.94
2018-09-24T02:56:03.216Z,100669.33
2018-09-24T03:01:06.523Z,100681.08
2018-09-24T03:06:09.822Z,100686.05
2018-09-24T03:11:13.120Z,100701.19
2018-09-24T03:16:16.397Z,100700.40
2018-09-24T03:21:19.678Z,100710.33
2018-09-24T03:26:22.984Z,100717.11
2018-09-24T03:31:26.274Z,100729.50
2018-09-24T03:36:29.547Z,100741.84
2018-09-24T03:41:32.844Z,100746.81
2018-09-24T03:46:36.126Z,100750.02
2018-09-24T03:51:39.736Z,100747.47
2018-09-24T03:56:43.010Z,100761.34
2018-09-24T04:01:46.401Z,100764.73
2018-09-24T04:06:54.980Z,100762.97
2018-09-24T04:12:03.603Z,100759.39
2018-09-24T04:17:12.128Z,100773.33
2018-09-24T04:22:20.666Z,100785.06
2018-09-24T04:27:29.289Z,100799.41
2018-09-24T04:32:38.011Z,100804.56
2018-09-24T04:37:46.718Z,100803.25
2018-09-24T04:42:55.387Z,100806.37
2018-09-24T04:48:03.870Z,100817.34
2018-09-24T04:53:12.392Z,100820.75
2018-09-24T04:58:21.346Z,100830.50
2018-09-24T05:03:29.906Z,100833.89
2018-09-24T05:08:38.533Z,100835.44
2018-09-24T05:13:47.109Z,100834.68
2018-09-24T05:18:55.699Z,100847.81
2018-09-24T05:24:04.435Z,100863.92
2018-09-24T05:29:13.135Z,100866.86
2018-09-24T05:34:21.963Z,100877.85
2018-09-24T05:39:30.588Z,100881.58
2018-09-24T05:44:39.153Z,100889.34
2018-09-24T05:49:48.019Z,100892.72
2018-09-24T05:54:56.610Z,100897.87
2018-09-24T06:00:05.323Z,100904.84
2018-09-24T06:05:14.079Z,100921.74
2018-09-24T06:10:23.079Z,100927.91
2018-09-24T06:15:31.841Z,100940.03
2018-09-24T06:20:44.953Z,100950.58
2018-09-24T06:25:53.719Z,100968.68
2018-09-24T06:31:02.483Z,100960.32
2018-09-24T06:36:11.199Z,100979.30
2018-09-24T06:41:19.818Z,100968.94
2018-09-24T06:46:28.435Z,100983.29
2018-09-24T06:51:37.286Z,100995.72
2018-09-24T06:56:45.837Z,101008.28
2018-09-24T07:01:54.559Z,101017.78
2018-09-24T07:07:03.151Z,101029.20
2018-09-24T07:12:11.823Z,101042.10
2018-09-24T07:17:20.420Z,101046.00
2018-09-24T07:22:29.187Z,101052.04
2018-09-24T07:27:37.987Z,101069.06
2018-09-24T07:32:46.655Z,101085.16
2018-09-24T07:37:55.295Z,101090.13
2018-09-24T07:43:04.433Z,101089.97
2018-09-24T07:48:13.091Z,101104.68
2018-09-24T07:53:21.654Z,101113.09
2018-09-24T07:58:30.230Z,101124.77
2018-09-24T08:03:38.746Z,101135.16
2018-09-24T08:08:47.418Z,101138.87
2018-09-24T08:13:56.148Z,101148.81
2018-09-24T08:19:04.734Z,101143.66
2018-09-24T08:24:13.454Z,101152.98
2018-09-24T08:29:22.175Z,101172.06
2018-09-24T08:34:30.750Z,101166.91
2018-09-24T09:02:27.247Z,101201.12
2018-09-24T09:07:35.822Z,101204.89
2018-09-24T09:12:44.478Z,101208.27
2018-09-24T09:17:53.174Z,101210.65
2018-09-24T09:23:02.058Z,101224.72
2018-09-24T10:07:35.550Z,101229.64
2018-09-24T10:12:44.179Z,101250.22
2018-09-24T10:17:52.971Z,101263.55
2018-09-24T10:23:01.487Z,101276.58
2018-09-24T10:28:10.206Z,101264.39
2018-09-24T10:33:18.916Z,101269.83
2018-09-24T10:38:27.502Z,101282.51
2018-09-24T10:43:36.147Z,101286.44
2018-09-24T10:48:44.867Z,101282.51
2018-09-24T10:53:53.414Z,101286.09
2018-09-24T10:59:02.016Z,101273.00
2018-09-24T11:04:10.583Z,101269.76
2018-09-24T11:09:19.307Z,101289.37
2018-09-24T11:14:27.922Z,101286.85
2018-09-24T11:19:36.490Z,101291.65
2018-09-24T11:24:45.210Z,101302.20
2018-09-24T11:29:53.735Z,101305.14
2018-09-24T12:14:28.298Z,101319.53
2018-09-24T12:25:01.224Z,101326.60
2018-09-24T12:30:09.742Z,101330.88
2018-09-24T12:35:34.274Z,101327.80
2018-09-24T12:40:43.002Z,101316.58
2018-09-24T12:45:51.498Z,101320.54
2018-09-24T12:51:06.918Z,101323.98
2018-09-24T12:56:15.594Z,101326.91
2018-09-24T13:01:24.114Z,101331.10
2018-09-24T13:06:32.758Z,101330.31
2018-09-24T13:11:41.361Z,101332.44
2018-09-24T13:16:50.104Z,101333.20
2018-09-24T13:21:58.846Z,101340.88
2018-09-24T13:27:07.349Z,101347.56
2018-09-24T13:32:15.990Z,101356.24
2018-09-24T13:37:24.518Z,101381.36
2018-09-24T13:42:33.287Z,101373.02
2018-09-24T13:47:41.899Z,101394.00
2018-09-24T13:52:50.600Z,101401.10
2018-09-24T13:57:59.142Z,101395.94
2018-09-24T14:03:07.834Z,101402.00
2018-09-24T14:08:16.603Z,101399.68
2018-09-24T14:13:25.155Z,101403.23
2018-09-24T14:18:33.709Z,101401.67
2018-09-24T14:23:42.442Z,101393.12
2018-09-24T14:28:51.043Z,101396.83
2018-09-24T14:33:59.696Z,101392.07
2018-09-24T14:39:08.388Z,101408.46
2018-09-24T14:44:17.130Z,101391.62
2018-09-24T14:49:25.650Z,101419.15
2018-09-24T14:54:34.315Z,101418.78
2018-09-24T14:59:42.822Z,101410.61
2018-09-24T15:04:51.613Z,101413.66
2018-09-24T15:10:00.155Z,101410.22
2018-09-24T15:15:08.776Z,101417.52
2018-09-24T15:20:17.400Z,101413.29
2018-09-24T15:25:26.138Z,101425.29
2018-09-24T15:30:34.986Z,101433.27
2018-09-24T15:35:43.543Z,101427.95
2018-09-24T15:41:08.919Z,101438.68
2018-09-24T15:46:17.450Z,101428.77
2018-09-24T15:51:26.193Z,101424.92
2018-09-24T15:56:34.809Z,101430.53
2018-09-24T16:01:43.424Z,101421.41
2018-09-24T16:06:52.154Z,101413.70
2018-09-24T16:12:00.830Z,101417.52
2018-09-24T16:17:09.551Z,101428.56
2018-09-24T16:22:18.227Z,101430.36
2018-09-24T16:27:26.862Z,101440.17
2018-09-24T16:32:35.531Z,101430.62
2018-09-24T16:37:44.174Z,101429.87
2018-09-24T16:42:52.877Z,101438.62
2018-09-24T16:48:01.499Z,101441.19
2018-09-24T16:53:10.170Z,101447.30
2018-09-24T16:58:18.686Z,101445.91
2018-09-24T17:03:27.490Z,101453.03
2018-09-24T17:08:36.062Z,101453.14
2018-09-24T17:13:44.695Z,101460.03
2018-09-24T17:18:53.218Z,101466.05
2018-09-24T17:24:01.999Z,101461.31
2018-09-24T17:29:10.807Z,101463.30
2018-09-24T17:34:19.387Z,101468.88
2018-09-24T17:39:28.271Z,101473.72
2018-09-24T17:44:37.371Z,101483.95
2018-09-24T17:49:46.114Z,101494.72
2018-09-24T17:54:55.234Z,101508.25
2018-09-24T18:00:04.315Z,101515.77
2018-09-24T18:05:13.192Z,101531.31
2018-09-24T18:10:21.890Z,101542.05
2018-09-24T18:15:30.790Z,101544.63
2018-09-24T18:20:39.486Z,101549.61
2018-09-24T18:25:48.252Z,101548.21
2018-09-24T18:30:56.881Z,101557.19
2018-09-24T18:36:05.484Z,101564.12
2018-09-24T18:41:14.147Z,101569.28
2018-09-24T18:46:22.837Z,101575.66
2018-09-24T18:51:31.707Z,101576.75
2018-09-24T18:56:40.261Z,101584.91
2018-09-24T19:01:48.850Z,101588.28
2018-09-24T19:06:57.446Z,101589.70
2018-09-24T19:12:06.123Z,101593.27
2018-09-24T19:17:15.223Z,101604.03
2018-09-24T19:22:24.182Z,101610.20
2018-09-24T19:27:32.939Z,101617.75
2018-09-24T19:32:42.044Z,101635.66
2018-09-24T19:37:50.938Z,101630.48
2018-09-24T19:42:59.743Z,101643.80
2018-09-24T19:48:08.315Z,101645.23
2018-09-24T19:53:16.883Z,101656.94
2018-09-24T19:58:25.603Z,101658.33
2018-09-24T20:03:34.231Z,101664.50
2018-09-24T20:08:42.986Z,101670.06
2018-09-24T20:13:51.581Z,101671.45
2018-09-24T20:19:00.236Z,101681.59
2018-09-24T20:24:08.755Z,101674.45
2018-09-24T20:29:17.482Z,101689.95
2018-09-24T20:34:26.023Z,101693.35
2018-09-24T20:39:34.762Z,101700.89
2018-09-24T20:44:43.387Z,101713.04
2018-09-24T20:49:52.064Z,101710.45
2018-09-24T20:55:00.726Z,101708.64
2018-09-24T21:00:09.446Z,101720.58
2018-09-24T21:05:17.991Z,101727.16
2018-09-24T21:10:26.566Z,101735.11
2018-09-24T21:15:35.230Z,101746.64
2018-09-24T21:20:43.950Z,101745.86
2018-09-24T21:30:53.666Z,101760.56
2018-09-24T21:36:02.396Z,101769.91
2018-09-24T21:41:11.217Z,101772.69
2018-09-24T21:46:20.126Z,101779.25
2018-09-24T21:51:28.598Z,101784.23
2018-09-24T21:56:37.262Z,101787.61
2018-09-24T22:01:45.847Z,101794.18
2018-09-24T22:06:54.455Z,101802.73
2018-09-24T22:12:03.115Z,101801.16
2018-09-24T22:17:11.825Z,101814.28
2018-09-24T22:22:20.398Z,101825.98
2018-09-24T22:27:29.193Z,101823.59
2018-09-24T22:32:37.910Z,101832.75
2018-09-24T22:37:46.430Z,101831.36
2018-09-24T22:42:55.171Z,101840.13
2018-09-24T22:48:03.898Z,101841.91
2018-09-24T22:53:12.691Z,101847.48
2018-09-24T22:58:21.419Z,101845.30
2018-09-24T23:03:30.142Z,101857.03
2018-09-24T23:08:38.753Z,101862.19
2018-09-24T23:13:47.523Z,101865.78
2018-09-24T23:18:56.120Z,101869.55
2018-09-24T23:24:04.709Z,101862.59
2018-09-24T23:29:13.434Z,101863.78
2018-09-24T23:34:22.039Z,101869.36
2018-09-24T23:39:30.671Z,101877.09
2018-09-24T23:44:39.298Z,101882.87
2018-09-24T23:49:47.962Z,101885.27
2018-09-24T23:54:56.566Z,101885.66
